Time;durP1;ratioP1;P1;durP2;ratioP2;P2;SDS_P1;SDS_P2;PMS_P1;PMS_P2;Temp;Humidity;BMP_temperature;BMP_pressure;BME280_temperature;BME280_humidity;BME280_pressure;Samples;Min_cycle;Max_cycle;Signal;HPM_P1;HPM_P2
2024/04/15 00:00:44;;;;;;;12.80;6.03;;;25.60;99.90;;;;;;5455010;26;19995;-53
2024/04/15 00:03:10;;;;;;;6.82;5.53;;;25.60;99.90;;;;;;5454597;26;19998;-53
2024/04/15 00:05:37;;;;;;;7.15;4.80;;;25.60;99.90;;;;;;5422294;26;19994;-49
2024/04/15 00:08:03;;;;;;;12.32;6.22;;;25.60;99.90;;;;;;5453790;26;19991;-50
2024/04/15 00:10:29;;;;;;;10.35;5.57;;;25.60;99.90;;;;;;5454419;26;20106;-49
2024/04/15 00:12:55;;;;;;;8.85;5.78;;;25.60;99.90;;;;;;5453695;26;20011;-50
2024/04/15 00:15:21;;;;;;;9.85;5.90;;;25.60;99.90;;;;;;5453617;26;19999;-50
2024/04/15 00:17:49;;;;;;;8.23;4.55;;;25.60;99.90;;;;;;5453982;26;20007;-49
2024/04/15 00:20:15;;;;;;;8.90;5.30;;;25.60;99.90;;;;;;5453170;26;20035;-52
2024/04/15 00:22:40;;;;;;;8.45;5.63;;;25.50;99.90;;;;;;5416672;26;20354;-48
2024/04/15 00:25:06;;;;;;;8.38;4.95;;;25.50;99.90;;;;;;5446817;26;20026;-49
2024/04/15 00:27:32;;;;;;;8.02;5.63;;;25.50;99.90;;;;;;5453652;26;20022;-52
2024/04/15 00:29:58;;;;;;;10.32;5.38;;;25.50;99.90;;;;;;5453898;26;19995;-49
2024/04/15 00:32:23;;;;;;;9.27;5.07;;;25.50;99.90;;;;;;5421755;26;20008;-49
2024/04/15 00:34:52;;;;;;;8.23;4.82;;;25.50;99.90;;;;;;5453721;26;20072;-49
2024/04/15 00:37:18;;;;;;;8.27;5.32;;;25.50;99.90;;;;;;5453618;26;20006;-47
2024/04/15 00:39:43;;;;;;;8.27;5.15;;;25.50;99.90;;;;;;5454086;26;19999;-50
2024/04/15 00:42:09;;;;;;;7.45;4.40;;;25.50;99.90;;;;;;5452921;26;20019;-47
2024/04/15 00:44:35;;;;;;;6.63;5.13;;;25.50;99.90;;;;;;5453975;26;20014;-49
2024/04/15 00:47:02;;;;;;;8.07;5.47;;;25.50;99.90;;;;;;5453472;26;20003;-49
2024/04/15 00:49:34;;;;;;;9.27;5.57;;;25.50;99.90;;;;;;5453413;26;19999;-51
2024/04/15 00:52:03;;;;;;;8.50;4.63;;;25.50;99.90;;;;;;5415914;26;19999;-50
2024/04/15 00:54:31;;;;;;;5.90;4.38;;;25.50;99.90;;;;;;5438877;26;20022;-49
2024/04/15 00:56:59;;;;;;;9.50;5.20;;;25.50;99.90;;;;;;5452845;26;20039;-48
2024/04/15 00:59:25;;;;;;;;;;;25.50;99.90;;;;;;5454025;26;20524;-50
2024/04/15 01:01:52;;;;;;;9.38;5.03;;;25.50;99.90;;;;;;5418804;21;19952;-52
2024/04/15 01:04:19;;;;;;;6.60;4.30;;;25.50;99.90;;;;;;5381448;26;20016;-51
2024/04/15 01:06:45;;;;;;;7.40;4.40;;;25.40;99.90;;;;;;5381618;26;20085;-51
2024/04/15 01:09:11;;;;;;;6.75;4.65;;;25.40;99.90;;;;;;5370249;26;20476;-51
2024/04/15 01:11:37;;;;;;;9.77;3.90;;;25.40;99.90;;;;;;5379345;26;20019;-51
2024/04/15 01:14:03;;;;;;;5.97;4.47;;;25.40;99.90;;;;;;5378939;26;20007;-51
2024/04/15 01:16:39;;;;;;;6.05;3.90;;;25.40;99.90;;;;;;5362628;26;20033;-52
2024/04/15 01:19:05;;;;;;;9.90;3.90;;;25.40;99.90;;;;;;5377120;26;20081;-52
2024/04/15 01:21:31;;;;;;;9.65;4.60;;;25.40;99.90;;;;;;5381957;26;20014;-53
2024/04/15 01:24:02;;;;;;;7.65;4.03;;;25.40;99.90;;;;;;5353884;26;20337;-53
2024/04/15 01:26:29;;;;;;;10.07;4.50;;;25.40;99.90;;;;;;5361430;26;20004;-52
2024/04/15 01:28:55;;;;;;;6.22;4.05;;;25.40;99.90;;;;;;5371957;26;20016;-51
2024/04/15 01:31:21;;;;;;;8.07;4.40;;;25.40;99.90;;;;;;5373870;26;20004;-51
2024/04/15 01:33:47;;;;;;;9.23;4.55;;;25.40;99.90;;;;;;5368370;26;20090;-52
2024/04/15 01:36:13;;;;;;;7.22;3.97;;;25.30;99.90;;;;;;5371614;26;20514;-52
2024/04/15 01:38:39;;;;;;;7.03;4.90;;;25.40;99.90;;;;;;5378612;26;20004;-52
2024/04/15 01:41:05;;;;;;;4.93;3.92;;;25.40;99.90;;;;;;5362292;26;20004;-52
2024/04/15 01:43:30;;;;;;;11.38;4.90;;;25.40;99.90;;;;;;5360916;26;20012;-52
2024/04/15 01:45:56;;;;;;;5.93;4.00;;;25.40;99.90;;;;;;5377626;26;20062;-52
2024/04/15 01:48:22;;;;;;;10.38;4.13;;;25.40;99.90;;;;;;5376908;26;20000;-53
2024/04/15 01:50:48;;;;;;;7.55;4.68;;;25.30;99.90;;;;;;5377504;26;20000;-53
2024/04/15 01:53:15;;;;;;;7.22;4.38;;;25.30;99.90;;;;;;5376151;26;20460;-52
2024/04/15 01:55:42;;;;;;;7.15;4.45;;;25.30;99.90;;;;;;5375467;26;20000;-52
2024/04/15 01:58:08;;;;;;;8.35;4.07;;;25.30;99.90;;;;;;5374933;26;20344;-52
2024/04/15 02:00:34;;;;;;;8.05;4.20;;;25.30;99.90;;;;;;5392172;21;20000;-48
2024/04/15 02:03:00;;;;;;;6.43;4.25;;;25.30;99.90;;;;;;5344971;26;20005;-48
2024/04/15 02:05:26;;;;;;;6.57;4.40;;;25.30;99.90;;;;;;5346009;26;20019;-48
2024/04/15 02:07:57;;;;;;;7.43;4.78;;;25.20;99.90;;;;;;5346003;26;20529;-49
2024/04/15 02:10:23;;;;;;;8.85;4.95;;;25.30;99.90;;;;;;5344695;26;20001;-48
2024/04/15 02:12:48;;;;;;;8.38;4.55;;;25.30;99.90;;;;;;5343783;26;20001;-48
2024/04/15 02:15:15;;;;;;;8.48;3.83;;;25.30;99.90;;;;;;5344891;26;19997;-48
2024/04/15 02:17:41;;;;;;;6.22;4.20;;;25.20;99.90;;;;;;5346524;26;20001;-48
2024/04/15 02:20:07;;;;;;;12.00;4.30;;;25.20;99.90;;;;;;5346368;26;20014;-48
2024/04/15 02:22:33;;;;;;;6.65;4.50;;;25.20;99.90;;;;;;5346551;26;20007;-48
2024/04/15 02:24:59;;;;;;;6.75;4.38;;;25.20;99.90;;;;;;5344869;26;20421;-48
2024/04/15 02:27:25;;;;;;;10.27;4.57;;;25.20;99.90;;;;;;5346271;26;20473;-48
2024/04/15 02:29:51;;;;;;;7.78;4.40;;;25.20;99.90;;;;;;5346099;26;20001;-48
2024/04/15 02:32:18;;;;;;;7.28;3.60;;;25.20;99.90;;;;;;5346426;26;20000;-49
2024/04/15 02:34:44;;;;;;;6.60;3.90;;;25.20;99.90;;;;;;5344772;26;20038;-48
2024/04/15 02:37:10;;;;;;;9.35;3.58;;;25.20;99.90;;;;;;5344382;26;20005;-50
2024/04/15 02:39:37;;;;;;;7.30;3.65;;;25.20;99.90;;;;;;5346421;26;20069;-49
2024/04/15 02:42:03;;;;;;;7.67;3.93;;;25.20;99.90;;;;;;5346752;26;20466;-48
2024/04/15 02:44:28;;;;;;;8.75;3.72;;;25.10;99.90;;;;;;5346159;26;20009;-49
2024/04/15 02:46:54;;;;;;;5.28;4.05;;;25.20;99.90;;;;;;5346111;26;20000;-49
2024/04/15 02:49:20;;;;;;;4.78;3.92;;;25.10;99.90;;;;;;5345821;26;20020;-49
2024/04/15 02:51:46;;;;;;;4.15;3.63;;;25.10;99.90;;;;;;5344310;26;20015;-48
2024/04/15 02:54:11;;;;;;;5.07;3.83;;;25.10;99.90;;;;;;5346172;26;20445;-49
2024/04/15 02:56:37;;;;;;;5.90;3.60;;;25.10;99.90;;;;;;5346265;26;20001;-49
2024/04/15 02:59:03;;;;;;;4.63;3.75;;;25.10;99.90;;;;;;5346317;26;20013;-49
2024/04/15 03:01:29;;;;;;;5.60;4.22;;;25.10;99.90;;;;;;5344521;26;20005;-50
2024/04/15 03:03:55;;;;;;;7.30;3.50;;;25.10;99.90;;;;;;5345518;26;20636;-49
2024/04/15 03:06:20;;;;;;;6.03;4.03;;;25.10;99.90;;;;;;5345984;26;20001;-49
2024/04/15 03:08:47;;;;;;;4.63;3.53;;;25.10;99.90;;;;;;5345717;26;20008;-48
2024/04/15 03:11:12;;;;;;;5.70;3.53;;;25.10;99.90;;;;;;5345783;26;20330;-49
2024/04/15 03:13:38;;;;;;;6.10;3.85;;;25.10;99.90;;;;;;5345677;26;19997;-48
2024/04/15 03:16:04;;;;;;;8.23;3.95;;;25.00;99.90;;;;;;5344097;26;20008;-49
2024/04/15 03:18:30;;;;;;;7.60;4.03;;;25.00;99.90;;;;;;5343678;26;20392;-48
2024/04/15 03:20:56;;;;;;;10.00;3.40;;;25.00;99.90;;;;;;5345574;26;20441;-48
2024/04/15 03:23:22;;;;;;;7.30;3.63;;;25.00;99.90;;;;;;5345459;26;19997;-48
2024/04/15 03:25:47;;;;;;;5.25;3.17;;;25.00;99.90;;;;;;5345505;26;20011;-48
2024/04/15 03:28:13;;;;;;;5.80;3.50;;;25.00;99.90;;;;;;5345319;26;20029;-48
2024/04/15 03:30:39;;;;;;;5.75;3.85;;;25.00;99.90;;;;;;5345576;26;19997;-48
2024/04/15 03:33:05;;;;;;;6.88;3.97;;;25.00;99.90;;;;;;5345816;26;20451;-48
2024/04/15 03:35:30;;;;;;;4.45;3.30;;;25.00;99.90;;;;;;5345414;26;20012;-48
2024/04/15 03:37:56;;;;;;;8.07;3.63;;;25.00;99.90;;;;;;5345363;26;20449;-48
2024/04/15 03:40:22;;;;;;;5.90;3.47;;;25.00;99.90;;;;;;5345471;26;20001;-48
2024/04/15 03:42:48;;;;;;;6.70;3.40;;;25.00;99.90;;;;;;5345061;26;20001;-47
2024/04/15 03:45:13;;;;;;;6.40;3.60;;;25.00;99.90;;;;;;5345478;26;20001;-48
2024/04/15 03:47:39;;;;;;;3.67;3.22;;;24.90;99.90;;;;;;5344923;26;20001;-48
2024/04/15 03:50:05;;;;;;;4.95;3.63;;;24.90;99.90;;;;;;5345442;26;19997;-48
2024/04/15 03:52:31;;;;;;;6.07;4.00;;;24.90;99.90;;;;;;5343829;26;20005;-49
2024/04/15 03:54:57;;;;;;;6.00;3.45;;;24.90;99.90;;;;;;5341705;26;20461;-49
2024/04/15 03:57:23;;;;;;;5.97;4.00;;;24.90;99.90;;;;;;5341773;26;19993;-49
2024/04/15 03:59:49;;;;;;;5.53;3.55;;;24.90;99.90;;;;;;5339498;26;19993;-49
2024/04/15 04:02:15;;;;;;;5.88;3.50;;;24.90;99.90;;;;;;5341570;26;20317;-47
2024/04/15 04:04:41;;;;;;;4.25;3.28;;;24.90;99.90;;;;;;5339476;26;20025;-47
2024/04/15 04:07:07;;;;;;;5.45;3.60;;;24.90;99.90;;;;;;5341702;26;20070;-48
2024/04/15 04:09:32;;;;;;;3.97;3.38;;;24.80;99.90;;;;;;5342825;26;20004;-47
2024/04/15 04:11:58;;;;;;;5.70;3.42;;;24.80;99.90;;;;;;5344656;26;20001;-48
2024/04/15 04:14:25;;;;;;;4.22;3.28;;;24.80;99.90;;;;;;5344700;26;20336;-49
2024/04/15 04:16:51;;;;;;;4.47;3.30;;;24.80;99.90;;;;;;5346902;26;20025;-49
2024/04/15 04:19:25;;;;;;;5.03;3.03;;;24.80;99.90;;;;;;5348172;26;20556;-48
2024/04/15 04:21:51;;;;;;;4.32;3.45;;;24.80;99.90;;;;;;5347960;26;20001;-48
2024/04/15 04:24:17;;;;;;;5.80;3.40;;;24.80;99.90;;;;;;5348211;26;20001;-48
2024/04/15 04:26:43;;;;;;;4.18;3.50;;;24.80;99.90;;;;;;5347943;26;20037;-50
2024/04/15 04:29:09;;;;;;;6.43;3.03;;;24.70;99.90;;;;;;5348156;26;20000;-49
2024/04/15 04:31:37;;;;;;;5.63;3.00;;;24.70;99.90;;;;;;5348147;26;20001;-48
2024/04/15 04:34:03;;;;;;;4.63;2.85;;;24.80;99.90;;;;;;5348022;26;20028;-49
2024/04/15 04:36:29;;;;;;;5.50;3.88;;;24.70;99.90;;;;;;5348210;26;20001;-49
2024/04/15 04:38:55;;;;;;;5.32;2.83;;;24.70;99.90;;;;;;5347695;26;20005;-48
2024/04/15 04:41:21;;;;;;;5.32;3.13;;;24.70;99.90;;;;;;5347806;26;19997;-49
2024/04/15 04:43:47;;;;;;;5.50;3.25;;;24.70;99.90;;;;;;5347743;26;20032;-48
2024/04/15 04:46:13;;;;;;;4.00;2.97;;;24.70;99.90;;;;;;5347739;26;20071;-48
2024/04/15 04:48:39;;;;;;;4.90;3.60;;;24.70;99.90;;;;;;5347965;26;20406;-48
2024/04/15 04:51:09;;;;;;;4.05;3.20;;;24.70;99.90;;;;;;5345776;26;20007;-48
2024/04/15 04:53:36;;;;;;;4.30;3.40;;;24.70;99.90;;;;;;5347542;26;20001;-48
2024/04/15 04:56:14;;;;;;;4.53;3.33;;;24.70;99.90;;;;;;5347400;26;20001;-49
2024/04/15 04:58:41;;;;;;;4.45;3.65;;;24.70;99.90;;;;;;5347973;26;20008;-49
2024/04/15 05:01:12;;;;;;;4.75;2.75;;;24.70;99.90;;;;;;5347616;26;20008;-49
2024/04/15 05:03:49;;;;;;;4.47;3.08;;;24.70;99.90;;;;;;5347818;26;20438;-49
2024/04/15 05:06:16;;;;;;;7.57;4.00;;;24.70;99.90;;;;;;5347408;26;20445;-49
2024/04/15 05:08:44;;;;;;;3.90;3.20;;;24.70;99.90;;;;;;5347353;26;20464;-49
2024/04/15 05:11:10;;;;;;;8.23;3.47;;;24.60;99.90;;;;;;5347915;26;19997;-50
2024/04/15 05:13:36;;;;;;;3.80;3.13;;;24.60;99.90;;;;;;5347233;26;20070;-49
2024/04/15 05:16:04;;;;;;;5.18;3.33;;;24.60;99.90;;;;;;5347153;26;20330;-49
2024/04/15 05:18:30;;;;;;;4.95;2.88;;;24.70;99.90;;;;;;5347075;26;20001;-48
2024/04/15 05:20:56;;;;;;;5.00;3.55;;;24.60;99.90;;;;;;5347200;26;20464;-49
2024/04/15 05:23:22;;;;;;;4.78;3.10;;;24.60;99.90;;;;;;5347214;26;20012;-49
2024/04/15 05:25:47;;;;;;;4.32;3.10;;;24.60;99.90;;;;;;5347115;26;20001;-49
2024/04/15 05:28:13;;;;;;;4.03;2.80;;;24.60;99.90;;;;;;5344950;26;20001;-48
2024/04/15 05:30:39;;;;;;;4.38;2.90;;;24.60;99.90;;;;;;5347190;26;20077;-48
2024/04/15 05:33:05;;;;;;;3.83;3.03;;;24.60;99.90;;;;;;5344980;26;20001;-49
2024/04/15 05:35:30;;;;;;;3.40;2.90;;;24.60;99.90;;;;;;5345500;26;19997;-48
2024/04/15 05:37:56;;;;;;;6.68;3.70;;;24.60;99.90;;;;;;5345034;26;20464;-49
2024/04/15 05:40:22;;;;;;;3.58;3.20;;;24.60;99.90;;;;;;5347109;26;20008;-48
2024/04/15 05:42:48;;;;;;;4.28;3.17;;;24.50;99.90;;;;;;5346737;26;20028;-48
2024/04/15 05:45:13;;;;;;;3.75;2.90;;;24.50;99.90;;;;;;5346971;26;19997;-48
2024/04/15 05:47:39;;;;;;;4.40;3.20;;;24.50;99.90;;;;;;5347008;26;20000;-48
2024/04/15 05:50:05;;;;;;;3.15;2.58;;;24.50;99.90;;;;;;5346467;26;20005;-48
2024/04/15 05:52:32;;;;;;;3.45;2.85;;;24.50;99.90;;;;;;5346611;26;20008;-48
2024/04/15 05:54:57;;;;;;;4.05;2.72;;;24.50;99.90;;;;;;5344787;26;20008;-48
2024/04/15 05:57:23;;;;;;;5.05;3.35;;;24.50;99.90;;;;;;5346953;26;19997;-49
2024/04/15 05:59:49;;;;;;;3.72;2.95;;;24.50;99.90;;;;;;5346667;26;20001;-49
2024/04/15 06:02:15;;;;;;;3.22;2.58;;;24.50;99.90;;;;;;5346499;26;20001;-48
2024/04/15 06:04:41;;;;;;;2.95;2.35;;;24.50;99.90;;;;;;5346965;26;20008;-48
2024/04/15 06:07:07;;;;;;;3.17;2.50;;;24.50;99.90;;;;;;5346781;26;20177;-48
2024/04/15 06:09:33;;;;;;;4.85;3.20;;;24.50;99.90;;;;;;5346597;26;20012;-49
2024/04/15 06:11:59;;;;;;;4.07;2.72;;;24.50;99.90;;;;;;5346449;26;20522;-50
2024/04/15 06:14:25;;;;;;;3.53;2.72;;;24.50;99.90;;;;;;5346504;26;20009;-48
2024/04/15 06:16:52;;;;;;;3.88;2.50;;;24.50;99.90;;;;;;5346291;26;19997;-49
2024/04/15 06:19:18;;;;;;;25.33;2.97;;;24.50;99.90;;;;;;5346532;26;20012;-49
2024/04/15 06:21:44;;;;;;;4.25;2.60;;;24.50;99.90;;;;;;5346490;26;19997;-49
2024/04/15 06:24:10;;;;;;;7.22;2.78;;;24.50;99.90;;;;;;5346224;26;20008;-49
2024/04/15 06:26:40;;;;;;;3.10;2.45;;;24.50;99.90;;;;;;5346279;26;20338;-48
2024/04/15 06:29:06;;;;;;;5.72;3.17;;;24.50;99.90;;;;;;5346248;26;20009;-49
2024/04/15 06:31:32;;;;;;;4.97;2.75;;;24.50;99.90;;;;;;5346322;26;20434;-49
2024/04/15 06:34:02;;;;;;;7.90;3.08;;;24.50;99.90;;;;;;5346161;26;20140;-48
2024/04/15 06:36:28;;;;;;;6.55;2.50;;;24.50;99.90;;;;;;5346079;26;20340;-48
2024/04/15 06:38:53;;;;;;;4.53;2.90;;;24.50;99.90;;;;;;5343810;26;20009;-48
2024/04/15 06:41:19;;;;;;;4.72;2.58;;;24.50;99.90;;;;;;5346148;26;19997;-47
2024/04/15 06:43:45;;;;;;;3.45;3.13;;;24.50;99.90;;;;;;5346642;26;20008;-47
2024/04/15 06:46:11;;;;;;;3.72;2.78;;;24.50;99.90;;;;;;5346270;26;20000;-49
2024/04/15 06:48:39;;;;;;;4.90;2.78;;;24.50;99.90;;;;;;5345997;26;20518;-48
2024/04/15 06:51:05;;;;;;;3.50;2.55;;;24.50;99.90;;;;;;5345995;26;20008;-48
2024/04/15 06:53:30;;;;;;;3.80;2.42;;;24.50;99.90;;;;;;5345817;26;20024;-48
2024/04/15 06:55:56;;;;;;;4.30;2.90;;;24.50;99.90;;;;;;5345826;26;20001;-48
2024/04/15 06:58:22;;;;;;;3.70;2.45;;;24.50;99.90;;;;;;5346016;26;19997;-48
2024/04/15 07:00:48;;;;;;;3.97;2.75;;;24.50;99.90;;;;;;5345553;26;20449;-48
2024/04/15 07:03:13;;;;;;;4.70;2.90;;;24.50;99.90;;;;;;5344337;26;19997;-47
2024/04/15 07:05:39;;;;;;;4.95;2.97;;;24.50;99.90;;;;;;5345522;26;20008;-48
2024/04/15 07:08:06;;;;;;;4.53;2.85;;;24.50;99.90;;;;;;5345588;26;20020;-47
2024/04/15 07:10:32;;;;;;;5.43;2.75;;;24.50;99.90;;;;;;5345538;26;20005;-48
2024/04/15 07:13:02;;;;;;;5.22;2.90;;;24.50;99.90;;;;;;5343756;26;20001;-48
2024/04/15 07:15:27;;;;;;;2.80;2.58;;;24.50;99.90;;;;;;5345514;26;20070;-48
2024/04/15 07:17:53;;;;;;;3.70;2.30;;;24.50;99.90;;;;;;5345376;26;19997;-49
2024/04/15 07:20:19;;;;;;;4.15;2.33;;;24.50;99.90;;;;;;5345489;26;20477;-49
2024/04/15 07:22:45;;;;;;;3.42;2.90;;;24.50;99.90;;;;;;5345804;26;20005;-49
2024/04/15 07:25:11;;;;;;;4.22;3.10;;;24.50;99.90;;;;;;5345442;26;20012;-49
2024/04/15 07:27:39;;;;;;;3.45;2.35;;;24.50;99.90;;;;;;5343566;26;19997;-49
2024/04/15 07:30:06;;;;;;;3.65;2.75;;;24.50;99.90;;;;;;5345319;26;20464;-48
2024/04/15 07:32:32;;;;;;;4.72;2.47;;;24.50;99.90;;;;;;5339355;26;20005;-49
2024/04/15 07:34:58;;;;;;;7.07;2.78;;;24.50;99.90;;;;;;5314202;26;20410;-48
2024/04/15 07:37:24;;;;;;;4.40;2.90;;;24.50;99.90;;;;;;5345163;26;20011;-48
2024/04/15 07:39:50;;;;;;;4.05;2.28;;;24.50;99.90;;;;;;5317866;26;20020;-48
2024/04/15 07:42:16;;;;;;;7.68;2.88;;;24.50;99.90;;;;;;5310916;26;20022;-48
2024/04/15 07:44:45;;;;;;;5.78;2.47;;;24.50;99.90;;;;;;5310499;27;20318;-49
2024/04/15 07:47:11;;;;;;;4.65;2.58;;;24.50;99.90;;;;;;5328495;26;20036;-47
2024/04/15 07:49:37;;;;;;;4.47;3.00;;;24.50;99.90;;;;;;5325119;26;20010;-48
2024/04/15 07:52:03;;;;;;;6.60;3.10;;;24.50;99.90;;;;;;5332155;26;20002;-47
2024/04/15 07:54:29;;;;;;;12.20;3.47;;;24.50;99.90;;;;;;5328908;26;20005;-47
2024/04/15 07:56:55;;;;;;;5.20;2.72;;;24.50;99.90;;;;;;5327983;26;20001;-49
2024/04/15 07:59:20;;;;;;;10.00;3.25;;;24.50;99.90;;;;;;5331907;26;20005;-47
2024/04/15 08:01:46;;;;;;;6.00;3.38;;;24.50;99.90;;;;;;5313776;26;20020;-49
2024/04/15 08:04:12;;;;;;;8.15;3.35;;;24.50;99.90;;;;;;5313361;26;20009;-49
2024/04/15 08:06:38;;;;;;;9.48;3.05;;;24.50;99.90;;;;;;5313247;26;20365;-49
2024/04/15 08:09:04;;;;;;;5.68;3.10;;;24.50;99.90;;;;;;5313153;27;20002;-51
2024/04/15 08:11:29;;;;;;;4.53;3.20;;;24.50;99.90;;;;;;5313955;26;20001;-50
2024/04/15 08:13:55;;;;;;;10.50;3.80;;;24.50;99.90;;;;;;5313516;26;20001;-49
2024/04/15 08:16:21;;;;;;;6.63;3.15;;;24.50;99.90;;;;;;5311941;26;20002;-49
2024/04/15 08:18:50;;;;;;;5.60;3.55;;;24.50;99.90;;;;;;5318127;26;20055;-48
2024/04/15 08:21:16;;;;;;;7.70;3.17;;;24.50;99.90;;;;;;5313479;26;20012;-49
2024/04/15 08:23:41;;;;;;;15.88;3.80;;;24.50;99.90;;;;;;5311804;27;19997;-49
2024/04/15 08:26:07;;;;;;;13.10;3.40;;;24.50;99.90;;;;;;5311801;27;20008;-48
2024/04/15 08:28:33;;;;;;;6.85;4.00;;;24.60;99.90;;;;;;5313256;27;20155;-49
2024/04/15 08:30:59;;;;;;;7.28;3.95;;;24.60;99.90;;;;;;5313304;26;20076;-51
2024/04/15 08:33:25;;;;;;;11.70;4.03;;;24.60;99.90;;;;;;5313409;27;20446;-49
2024/04/15 08:35:51;;;;;;;11.95;3.47;;;24.60;99.90;;;;;;5313404;27;19997;-50
2024/04/15 08:38:17;;;;;;;14.57;4.03;;;24.60;99.90;;;;;;5313079;26;20326;-49
2024/04/15 08:40:53;;;;;;;8.45;3.60;;;24.60;99.90;;;;;;5313123;26;20012;-49
2024/04/15 08:43:22;;;;;;;16.85;4.38;;;24.60;99.90;;;;;;5313431;27;20001;-49
2024/04/15 08:46:13;;;;;;;5.57;3.40;;;24.60;99.90;;;;;;5311523;26;20013;-50
2024/04/15 08:48:40;;;;;;;11.65;4.13;;;24.60;99.90;;;;;;5313250;26;20034;-49
2024/04/15 08:51:07;;;;;;;10.32;5.15;;;24.60;99.90;;;;;;5313227;27;20022;-49
2024/04/15 08:53:33;;;;;;;9.50;4.40;;;24.60;99.90;;;;;;5313359;26;20005;-48
2024/04/15 08:55:59;;;;;;;6.03;4.25;;;24.70;99.90;;;;;;5313144;26;20001;-49
2024/04/15 08:58:25;;;;;;;9.30;4.18;;;24.60;99.90;;;;;;5313273;27;20001;-49
2024/04/15 09:00:52;;;;;;;7.00;4.30;;;24.70;99.90;;;;;;5313183;26;20013;-50
2024/04/15 09:03:18;;;;;;;10.27;4.68;;;24.60;99.90;;;;;;5312869;27;19998;-49
2024/04/15 09:05:44;;;;;;;13.32;4.97;;;24.60;99.90;;;;;;5311169;27;20009;-50
2024/04/15 09:08:10;;;;;;;9.85;3.75;;;24.60;99.90;;;;;;5312699;26;20001;-49
2024/04/15 09:10:36;;;;;;;9.23;4.95;;;24.60;99.90;;;;;;5312737;27;20001;-49
2024/04/15 09:13:02;;;;;;;7.75;4.32;;;24.70;99.90;;;;;;5312902;26;20008;-49
2024/04/15 09:15:27;;;;;;;7.70;4.38;;;24.70;99.90;;;;;;5312576;27;20080;-50
2024/04/15 09:17:54;;;;;;;8.65;4.85;;;24.70;99.90;;;;;;5312878;27;20009;-49
2024/04/15 09:20:20;;;;;;;14.90;4.20;;;24.70;99.90;;;;;;5312741;26;20062;-49
2024/04/15 09:22:46;;;;;;;10.50;4.70;;;24.70;99.90;;;;;;5312999;27;20017;-49
2024/04/15 09:25:13;;;;;;;10.45;4.07;;;24.70;99.90;;;;;;5312837;27;19998;-50
2024/04/15 09:27:39;;;;;;;12.45;4.82;;;24.70;99.90;;;;;;5312688;26;20407;-50
2024/04/15 09:30:06;;;;;;;8.65;4.35;;;24.70;99.90;;;;;;5312646;26;20001;-49
2024/04/15 09:32:32;;;;;;;8.45;3.85;;;24.70;99.90;;;;;;5312618;26;20037;-49
2024/04/15 09:35:05;;;;;;;6.25;3.65;;;24.70;99.90;;;;;;5312592;26;20093;-49
2024/04/15 09:37:31;;;;;;;7.07;3.78;;;24.70;99.90;;;;;;5312495;26;20005;-49
2024/04/15 09:39:57;;;;;;;9.30;4.10;;;24.70;99.90;;;;;;5312452;27;20025;-49
2024/04/15 09:42:24;;;;;;;10.38;3.92;;;24.70;99.90;;;;;;5312546;26;20482;-49
2024/04/15 09:44:51;;;;;;;7.07;3.70;;;24.70;99.90;;;;;;5312215;26;20401;-48
2024/04/15 09:47:18;;;;;;;7.97;3.38;;;24.70;99.90;;;;;;5312252;27;20008;-49
2024/04/15 09:49:46;;;;;;;7.13;4.00;;;24.70;99.90;;;;;;5311750;27;20002;-49
2024/04/15 09:52:18;;;;;;;7.53;4.45;;;24.70;99.90;;;;;;5311711;26;20431;-49
2024/04/15 09:54:45;;;;;;;9.02;3.88;;;24.70;99.90;;;;;;5311870;26;20012;-49
2024/04/15 09:57:18;;;;;;;7.32;4.50;;;24.70;99.90;;;;;;5311955;27;19998;-48
2024/04/15 09:59:46;;;;;;;6.63;3.50;;;24.70;99.90;;;;;;5312243;27;20409;-49
2024/04/15 10:02:34;;;;;;;12.32;4.38;;;24.80;99.90;;;;;;5311948;26;20001;-50
2024/04/15 10:05:08;;;;;;;8.82;4.13;;;24.80;99.90;;;;;;5312256;27;20002;-51
2024/04/15 10:07:36;;;;;;;9.05;3.63;;;24.80;99.90;;;;;;5312047;27;20434;-50
2024/04/15 10:10:02;;;;;;;5.55;3.90;;;24.80;99.90;;;;;;5312188;27;20466;-50
2024/04/15 10:12:28;;;;;;;12.77;4.00;;;24.80;99.90;;;;;;5312160;27;20002;-50
2024/04/15 10:14:55;;;;;;;7.65;3.63;;;24.80;99.90;;;;;;5311197;26;20016;-50
2024/04/15 10:17:25;;;;;;;8.27;3.72;;;24.80;99.90;;;;;;5311864;26;20001;-50
2024/04/15 10:19:51;;;;;;;4.97;3.65;;;24.90;99.90;;;;;;5311846;26;20009;-50
2024/04/15 10:22:17;;;;;;;4.78;3.35;;;24.90;99.90;;;;;;5311796;26;20449;-50
2024/04/15 10:24:43;;;;;;;7.68;3.83;;;24.90;99.90;;;;;;5311671;27;20048;-50
2024/04/15 10:27:10;;;;;;;8.50;3.72;;;24.90;99.90;;;;;;5311703;27;20001;-49
2024/04/15 10:29:41;;;;;;;14.15;3.40;;;24.90;99.90;;;;;;5311640;26;20008;-49
2024/04/15 10:32:08;;;;;;;6.43;3.75;;;24.90;99.90;;;;;;5311627;26;20538;-48
2024/04/15 10:34:40;;;;;;;8.27;3.80;;;24.90;99.90;;;;;;5311906;27;20105;-49
2024/04/15 10:37:12;;;;;;;5.32;3.47;;;24.90;99.90;;;;;;5311828;27;20016;-49
2024/04/15 10:39:45;;;;;;;9.52;3.97;;;24.90;99.90;;;;;;5311605;26;19998;-50
2024/04/15 10:42:12;;;;;;;7.55;3.70;;;25.00;99.90;;;;;;5311596;26;20347;-49
2024/04/15 10:44:38;;;;;;;5.50;3.20;;;25.00;99.90;;;;;;5311753;27;20005;-50
2024/04/15 10:47:05;;;;;;;8.35;3.70;;;25.00;99.90;;;;;;5311598;27;20071;-50
2024/04/15 10:49:31;;;;;;;5.72;3.20;;;25.00;99.90;;;;;;5311583;26;20001;-52
2024/04/15 10:51:57;;;;;;;8.98;3.58;;;25.00;99.90;;;;;;5281790;27;20068;-50
2024/04/15 10:54:23;;;;;;;6.28;3.30;;;25.00;99.90;;;;;;5311487;26;20002;-50
2024/04/15 10:56:49;;;;;;;6.55;3.22;;;25.00;99.90;;;;;;5309745;26;20075;-50
2024/04/15 10:59:15;;;;;;;8.25;4.22;;;25.00;99.90;;;;;;5311638;26;20005;-50
2024/04/15 11:01:45;;;;;;;4.57;3.13;;;25.00;99.90;;;;;;5311719;26;20066;-50
2024/04/15 11:04:11;;;;;;;5.07;3.28;;;25.00;99.90;;;;;;5311516;27;20005;-49
2024/04/15 11:06:37;;;;;;;4.75;3.58;;;25.10;99.90;;;;;;5311297;27;19998;-50
2024/04/15 11:09:04;;;;;;;9.20;4.03;;;25.10;99.90;;;;;;5311164;26;20020;-49
2024/04/15 11:11:32;;;;;;;6.78;3.38;;;25.10;99.90;;;;;;5311907;26;20330;-50
2024/04/15 11:13:58;;;;;;;7.22;3.72;;;25.10;99.90;;;;;;5311614;27;19998;-50
2024/04/15 11:16:27;;;;;;;5.75;3.45;;;25.10;99.90;;;;;;5311346;27;20075;-49
2024/04/15 11:18:52;;;;;;;7.05;4.40;;;25.10;99.90;;;;;;5311200;26;20021;-50
2024/04/15 11:21:18;;;;;;;7.10;4.50;;;25.20;99.90;;;;;;5311132;26;20002;-48
2024/04/15 11:23:45;;;;;;;6.00;4.05;;;25.20;99.90;;;;;;5311929;26;19997;-50
2024/04/15 11:26:14;;;;;;;4.68;3.90;;;25.20;99.90;;;;;;5329705;26;20005;-51
2024/04/15 11:28:41;;;;;;;6.38;4.03;;;25.20;99.90;;;;;;5311176;26;20445;-48
2024/04/15 11:31:08;;;;;;;9.75;4.65;;;25.20;99.90;;;;;;5337608;26;20011;-49
2024/04/15 11:33:34;;;;;;;10.13;4.20;;;25.20;99.90;;;;;;5310949;26;20460;-50
2024/04/15 11:36:00;;;;;;;6.20;4.65;;;25.30;99.90;;;;;;5311013;26;20013;-49
2024/04/15 11:38:26;;;;;;;8.75;5.63;;;25.20;99.90;;;;;;5337608;26;20022;-50
2024/04/15 11:40:52;;;;;;;7.00;5.05;;;25.30;99.90;;;;;;5337593;26;19998;-50
2024/04/15 11:43:19;;;;;;;7.35;5.50;;;25.30;99.90;;;;;;5311813;26;20013;-50
2024/04/15 11:45:53;;;;;;;11.68;4.72;;;25.30;99.90;;;;;;5314045;26;19997;-50
2024/04/15 11:48:22;;;;;;;8.55;4.90;;;25.30;99.90;;;;;;5313875;26;19997;-50
2024/04/15 11:50:49;;;;;;;8.35;5.18;;;25.30;99.90;;;;;;5341078;26;20022;-50
2024/04/15 11:53:23;;;;;;;9.35;5.03;;;25.40;99.90;;;;;;5314090;26;20002;-50
2024/04/15 11:55:53;;;;;;;8.93;4.40;;;25.40;99.90;;;;;;5314087;26;20007;-50
2024/04/15 11:58:21;;;;;;;8.02;4.82;;;25.40;99.90;;;;;;5313858;26;19998;-50
2024/04/15 12:00:47;;;;;;;11.98;5.13;;;25.40;99.90;;;;;;5313775;26;20002;-50
2024/04/15 12:03:13;;;;;;;9.15;5.63;;;25.40;99.90;;;;;;5313718;26;20012;-51
2024/04/15 12:05:40;;;;;;;9.77;5.57;;;25.40;99.90;;;;;;5314202;26;20001;-51
2024/04/15 12:08:07;;;;;;;7.30;4.63;;;25.40;99.90;;;;;;5340710;26;20005;-51
2024/04/15 12:10:34;;;;;;;8.55;5.30;;;25.40;99.90;;;;;;5314109;26;20030;-51
2024/04/15 12:13:00;;;;;;;8.10;5.13;;;25.40;99.90;;;;;;5313905;26;20454;-51
2024/04/15 12:15:26;;;;;;;5.80;4.57;;;25.40;99.90;;;;;;5311931;27;20259;-51
2024/04/15 12:17:52;;;;;;;7.97;4.88;;;25.50;99.90;;;;;;5313454;26;20032;-51
2024/04/15 12:20:18;;;;;;;9.82;5.35;;;25.50;99.90;;;;;;5311670;26;20001;-51
2024/04/15 12:22:44;;;;;;;8.23;4.85;;;25.50;99.90;;;;;;5313614;26;20088;-52
2024/04/15 12:25:12;;;;;;;9.07;4.57;;;25.50;99.90;;;;;;5313406;26;20038;-52
2024/04/15 12:27:37;;;;;;;;;;;25.50;99.90;;;;;;5313984;26;20030;-50
2024/04/15 12:30:04;;;;;;;10.05;4.63;;;25.50;99.90;;;;;;5313889;26;19933;-50
2024/04/15 12:32:31;;;;;;;9.70;5.80;;;25.60;99.90;;;;;;5313622;26;20033;-50
2024/04/15 12:34:57;;;;;;;7.00;4.80;;;25.60;99.90;;;;;;5313195;26;20006;-50
2024/04/15 12:37:22;;;;;;;8.70;5.13;;;25.50;99.90;;;;;;5312437;26;19997;-51
2024/04/15 12:39:48;;;;;;;10.18;6.30;;;25.60;99.90;;;;;;5313036;27;19998;-49
2024/04/15 12:42:14;;;;;;;14.98;7.13;;;25.60;99.90;;;;;;5313282;26;20008;-50